OINN  Noshahr Airport

Add Bookmark

Iran

Status IATA
Operational NSH
Latitude Longitude
36° 39' 47" N 51° 27' 52" E
36.663300 51.464699
Local (DST + 5) UTC (GMT + 4)
Aug 22, 2014 06:13 Aug 22, 2014 13:43
Sunrise-Sunset Local UTC
Begin Civil Twilight 05:59 01:29
Sunrise 06:26 01:56
Sunset 07:47 15:17
End Civil Twilight 08:14 15:44

Current Weather

METAR Observed VFR
OINN 221300Z 36006KT 9999 FEW025TCU 30/24 Q1010 Fri, Aug 22, 2014 @ 13:00 UTC
(43 Minutes ago)
Visual Flight Rules
Wind Visibility Clouds Conditions
360° at 6 knots (11 kph) 10 km or more
  • Few at 2,500' AGL
  • No significant weather
Temperatures Readings Precipitation
Current Temp 30°C (86°F)
Dewpoint 24°C (75°F)
Heat Index 35°C (95°F)
Humidity 70%
Altimeter 29.82"Hg
Sea Level Pressure 1010mb
None Recorded

Additional weather within a 92.6km radius of OINN

Map ICAO Location
OINR 75km W (292°)

24 Hour Weather History

Loading
-

24 Hour Weather Graphs

Loading
-

CheckWX.com is intended as a tool to help pilots better visualize weather data. It is not intended as a substitute for an official weather briefing obtained from a Flight Service Station. CheckWX.com does not meet the FAA requirements for an official pre-flight weather briefing. Therefore, it's important that pilots still call and obtain an official FSS pre-flight weather briefing.